Time;durP1;ratioP1;P1;durP2;ratioP2;P2;SDS_P1;SDS_P2;PMS_P1;PMS_P2;Temp;Humidity;BMP_temperature;BMP_pressure;BME280_temperature;BME280_humidity;BME280_pressure;Samples;Min_cycle;Max_cycle;Signal;HPM_P1;HPM_P2
2021/03/14 00:00:48;;;;;;;22.13;3.85;;;5.50;99.90;;;;;;5095255;28;20027;-86
2021/03/14 00:03:16;;;;;;;11.15;1.42;;;5.60;99.90;;;;;;5094914;28;20024;-87
2021/03/14 00:05:45;;;;;;;10.07;1.85;;;5.60;99.90;;;;;;5077935;28;20024;-87
2021/03/14 00:08:12;;;;;;;9.07;1.20;;;5.60;99.90;;;;;;5096220;28;20124;-86
2021/03/14 00:10:40;;;;;;;19.00;1.73;;;5.60;99.90;;;;;;5094904;28;20091;-87
2021/03/14 00:13:06;;;;;;;16.45;2.70;;;5.70;99.90;;;;;;5077862;28;20032;-86
2021/03/14 00:15:32;;;;;;;11.48;1.70;;;5.80;99.90;;;;;;5097103;28;20476;-86
2021/03/14 00:17:57;;;;;;;14.90;1.75;;;5.80;99.90;;;;;;5076673;28;20119;-87
2021/03/14 00:20:23;;;;;;;13.95;1.75;;;5.90;99.90;;;;;;5094857;28;20048;-86
2021/03/14 00:22:49;;;;;;;15.48;1.73;;;5.90;99.90;;;;;;5076641;28;20024;-86
2021/03/14 00:25:16;;;;;;;12.05;2.20;;;5.90;99.90;;;;;;5076903;28;20118;-87
2021/03/14 00:27:44;;;;;;;8.07;1.08;;;6.00;99.90;;;;;;5076299;28;20024;-86
2021/03/14 00:30:12;;;;;;;7.53;1.48;;;6.00;99.90;;;;;;5076614;28;20028;-87
2021/03/14 00:32:38;;;;;;;13.80;1.85;;;6.00;99.90;;;;;;5076390;28;20058;-87
2021/03/14 00:35:05;;;;;;;12.23;1.48;;;6.00;99.60;;;;;;5094591;28;20048;-86
2021/03/14 00:37:30;;;;;;;9.80;1.90;;;6.10;99.70;;;;;;5076147;28;20111;-87
2021/03/14 00:39:56;;;;;;;13.02;2.05;;;6.10;99.50;;;;;;5076571;28;20571;-86
2021/03/14 00:42:21;;;;;;;11.50;1.48;;;6.10;99.40;;;;;;5076304;28;20024;-87
2021/03/14 00:44:47;;;;;;;10.32;1.83;;;6.10;99.30;;;;;;5076073;28;20027;-88
2021/03/14 00:47:13;;;;;;;14.88;1.70;;;6.20;99.30;;;;;;5075912;28;20023;-86
2021/03/14 00:49:38;;;;;;;12.38;1.70;;;6.10;99.30;;;;;;5076121;28;20501;-87
2021/03/14 00:52:04;;;;;;;6.65;1.90;;;6.10;99.50;;;;;;5076065;28;20031;-88
2021/03/14 00:54:30;;;;;;;17.25;1.98;;;6.20;99.60;;;;;;5094101;28;20494;-86
2021/03/14 00:56:55;;;;;;;11.60;1.70;;;6.20;99.20;;;;;;5094133;28;20028;-86
2021/03/14 00:59:21;;;;;;;11.45;1.77;;;6.20;99.00;;;;;;5075735;28;20056;-87
2021/03/14 01:01:46;;;;;;;9.30;1.90;;;6.30;98.90;;;;;;5075806;28;20028;-85
2021/03/14 01:04:12;;;;;;;13.82;2.35;;;6.30;99.30;;;;;;5075961;28;20053;-87
2021/03/14 01:06:37;;;;;;;13.55;1.60;;;6.20;99.70;;;;;;5068296;28;20066;-86
2021/03/14 01:09:03;;;;;;;10.15;1.83;;;6.10;99.90;;;;;;5072292;28;20089;-87
2021/03/14 01:11:29;;;;;;;12.05;1.77;;;6.00;99.90;;;;;;5073540;28;20036;-87
2021/03/14 01:13:54;;;;;;;8.73;1.75;;;6.00;99.90;;;;;;5055787;28;20139;-88
2021/03/14 01:16:20;;;;;;;10.45;2.30;;;6.00;99.90;;;;;;5073484;28;20052;-87
2021/03/14 01:18:46;;;;;;;14.38;1.80;;;5.90;99.90;;;;;;5073530;28;20035;-86
2021/03/14 01:21:11;;;;;;;9.23;1.65;;;5.90;99.90;;;;;;5055764;28;20476;-88
2021/03/14 01:23:37;;;;;;;12.20;2.13;;;5.90;99.90;;;;;;5055554;28;20020;-87
2021/03/14 01:26:02;;;;;;;8.27;2.30;;;5.90;99.90;;;;;;5073385;28;20025;-87
2021/03/14 01:28:28;;;;;;;13.75;1.80;;;5.90;99.90;;;;;;5055446;28;20123;-87
2021/03/14 01:30:53;;;;;;;11.05;1.80;;;5.90;99.90;;;;;;5055545;28;20024;-87
2021/03/14 01:33:19;;;;;;;13.40;2.20;;;5.90;99.90;;;;;;5073460;28;20055;-87
2021/03/14 01:35:44;;;;;;;10.00;1.65;;;5.90;99.90;;;;;;5055516;28;20127;-87
2021/03/14 01:38:10;;;;;;;15.88;1.80;;;5.90;99.90;;;;;;5072010;28;20020;-87
2021/03/14 01:40:36;;;;;;;13.50;2.13;;;5.90;99.90;;;;;;5072460;28;20029;-87
2021/03/14 01:43:01;;;;;;;12.20;2.40;;;5.90;99.90;;;;;;5071213;28;20119;-88
2021/03/14 01:45:27;;;;;;;9.18;1.58;;;5.90;99.90;;;;;;5055436;28;20031;-87
2021/03/14 01:47:53;;;;;;;10.95;1.63;;;5.90;99.90;;;;;;5072061;28;20115;-88
2021/03/14 01:50:24;;;;;;;16.08;2.80;;;5.90;99.90;;;;;;5055328;28;20078;-87
2021/03/14 01:52:51;;;;;;;11.25;1.73;;;5.80;99.90;;;;;;5073225;28;20029;-87
2021/03/14 01:55:19;;;;;;;9.02;1.27;;;5.80;99.90;;;;;;5073300;28;20037;-87
2021/03/14 01:57:45;;;;;;;10.30;1.48;;;5.80;99.90;;;;;;5055820;28;20115;-88
2021/03/14 02:00:13;;;;;;;14.52;1.48;;;5.90;99.90;;;;;;5056382;28;20020;-88
2021/03/14 02:02:40;;;;;;;12.07;2.65;;;5.90;99.90;;;;;;5055885;28;20357;-87
2021/03/14 02:05:08;;;;;;;17.95;2.05;;;5.90;99.90;;;;;;5055742;28;20021;-87
2021/03/14 02:07:34;;;;;;;13.93;2.10;;;5.90;99.90;;;;;;5067993;28;20051;-87
2021/03/14 02:10:00;;;;;;;10.35;1.98;;;5.90;99.90;;;;;;5075254;28;20020;-87
2021/03/14 02:12:28;;;;;;;17.30;2.00;;;6.00;99.90;;;;;;5075140;28;20024;-87
2021/03/14 02:14:58;;;;;;;10.93;1.63;;;6.00;99.90;;;;;;5074975;28;20069;-87
2021/03/14 02:17:28;;;;;;;15.73;2.33;;;6.00;99.90;;;;;;5093274;28;20024;-87
2021/03/14 02:20:06;;;;;;;14.50;1.85;;;5.90;99.90;;;;;;5109057;28;20063;-87
2021/03/14 02:22:32;;;;;;;10.00;1.60;;;5.90;99.90;;;;;;5093260;28;20492;-86
2021/03/14 02:25:01;;;;;;;14.70;1.92;;;5.90;99.90;;;;;;5075100;28;20110;-88
2021/03/14 02:27:27;;;;;;;11.88;1.65;;;5.90;99.90;;;;;;5075327;28;20028;-87
2021/03/14 02:29:53;;;;;;;10.05;1.50;;;5.90;99.90;;;;;;5075046;28;20035;-87
2021/03/14 02:32:19;;;;;;;11.82;2.05;;;5.80;99.90;;;;;;5074988;28;20514;-86
2021/03/14 02:34:55;;;;;;;8.82;1.90;;;5.80;99.90;;;;;;5077705;28;20383;-87
2021/03/14 02:37:22;;;;;;;10.10;1.50;;;5.80;99.90;;;;;;5096999;28;20020;-88
2021/03/14 02:39:51;;;;;;;13.02;1.65;;;5.70;99.90;;;;;;5096856;28;20024;-86
2021/03/14 02:42:17;;;;;;;16.73;2.50;;;5.70;99.90;;;;;;5078814;28;20114;-87
2021/03/14 02:44:48;;;;;;;13.13;1.75;;;5.70;99.90;;;;;;5078794;28;20020;-87
2021/03/14 02:47:14;;;;;;;12.93;2.03;;;5.70;99.90;;;;;;5079733;28;20032;-87
2021/03/14 02:49:40;;;;;;;13.55;2.63;;;5.60;99.90;;;;;;5078717;28;20525;-87
2021/03/14 02:52:06;;;;;;;9.02;1.60;;;5.60;99.90;;;;;;5113016;28;20028;-87
2021/03/14 02:54:33;;;;;;;8.95;1.73;;;5.60;99.90;;;;;;5080773;28;20035;-87
2021/03/14 02:57:00;;;;;;;15.63;1.60;;;5.60;99.90;;;;;;5079528;28;20028;-87
2021/03/14 02:59:26;;;;;;;9.32;1.30;;;5.60;99.90;;;;;;5078440;28;20075;-87
2021/03/14 03:01:53;;;;;;;12.10;1.55;;;5.60;99.90;;;;;;5078782;28;20025;-87
2021/03/14 03:04:22;;;;;;;8.57;1.58;;;5.60;99.90;;;;;;5078377;28;20078;-88
2021/03/14 03:06:49;;;;;;;9.75;1.90;;;5.60;99.90;;;;;;5089472;28;20056;-87
2021/03/14 03:09:16;;;;;;;11.60;2.13;;;5.60;99.90;;;;;;5074954;28;20037;-87
2021/03/14 03:11:43;;;;;;;12.70;2.22;;;5.60;99.90;;;;;;5058441;28;20439;-88
2021/03/14 03:14:12;;;;;;;13.77;2.13;;;5.60;99.90;;;;;;5076047;28;20025;-87
2021/03/14 03:16:40;;;;;;;13.80;2.00;;;5.60;99.90;;;;;;5075880;28;20035;-88
2021/03/14 03:19:07;;;;;;;11.80;1.50;;;5.60;99.90;;;;;;5058016;28;20392;-87
2021/03/14 03:21:33;;;;;;;10.38;1.40;;;5.50;99.90;;;;;;5058288;28;20074;-87
2021/03/14 03:24:00;;;;;;;9.52;1.60;;;5.50;99.90;;;;;;5058180;28;20021;-88
2021/03/14 03:26:26;;;;;;;12.35;2.70;;;5.50;99.90;;;;;;5076181;28;20357;-86
2021/03/14 03:28:51;;;;;;;12.50;1.75;;;5.50;99.90;;;;;;5057953;28;20104;-87
2021/03/14 03:31:17;;;;;;;9.57;1.65;;;5.50;99.90;;;;;;5057876;28;20373;-87
2021/03/14 03:33:43;;;;;;;10.93;1.35;;;5.40;99.90;;;;;;5075781;28;20056;-87
2021/03/14 03:36:08;;;;;;;10.07;1.48;;;5.40;99.90;;;;;;5057692;28;20036;-87
2021/03/14 03:38:35;;;;;;;13.02;2.67;;;5.40;99.90;;;;;;5075753;28;20039;-87
2021/03/14 03:41:01;;;;;;;12.75;2.35;;;5.30;99.90;;;;;;5074509;28;20166;-87
2021/03/14 03:43:35;;;;;;;18.33;1.80;;;5.30;99.90;;;;;;5057767;28;20500;-87
2021/03/14 03:46:04;;;;;;;9.35;2.13;;;5.30;99.90;;;;;;5074951;28;20028;-87
2021/03/14 03:48:45;;;;;;;9.65;1.65;;;5.30;99.90;;;;;;5057613;28;20025;-87
2021/03/14 03:51:11;;;;;;;15.50;1.70;;;5.30;99.90;;;;;;5057548;28;20480;-87
2021/03/14 03:53:39;;;;;;;14.55;3.13;;;5.30;99.90;;;;;;5057610;28;20113;-87
2021/03/14 03:56:06;;;;;;;13.60;2.22;;;5.20;99.90;;;;;;5057366;28;20388;-87
2021/03/14 03:58:33;;;;;;;16.23;1.85;;;5.20;99.90;;;;;;5057359;28;20032;-87
2021/03/14 04:01:01;;;;;;;12.27;1.55;;;5.20;99.90;;;;;;5057095;28;20039;-87
2021/03/14 04:03:30;;;;;;;9.90;1.88;;;5.20;99.90;;;;;;5057364;28;20036;-88
2021/03/14 04:05:57;;;;;;;12.55;1.55;;;5.20;99.90;;;;;;5057284;28;20035;-88
2021/03/14 04:08:23;;;;;;;12.50;2.05;;;5.20;99.90;;;;;;5095306;28;20109;-88
2021/03/14 04:10:50;;;;;;;13.23;1.75;;;5.20;99.90;;;;;;5095551;28;20036;-88
2021/03/14 04:13:17;;;;;;;12.27;1.77;;;5.10;99.90;;;;;;5077852;28;20118;-87
2021/03/14 04:15:42;;;;;;;11.95;2.08;;;5.10;99.90;;;;;;5083927;28;20060;-87
2021/03/14 04:18:09;;;;;;;13.18;2.90;;;5.00;99.90;;;;;;5057147;28;20051;-87
2021/03/14 04:20:37;;;;;;;11.70;2.10;;;5.00;99.90;;;;;;5056957;28;20469;-88
2021/03/14 04:23:07;;;;;;;9.13;1.60;;;5.00;99.90;;;;;;5057004;28;20021;-87
2021/03/14 04:25:33;;;;;;;7.28;1.73;;;5.00;99.90;;;;;;5057053;28;20115;-87
2021/03/14 04:28:01;;;;;;;18.45;3.35;;;5.00;99.90;;;;;;5074563;28;20107;-87
2021/03/14 04:30:28;;;;;;;10.23;2.03;;;5.00;99.90;;;;;;5074914;28;20033;-87
2021/03/14 04:32:55;;;;;;;16.55;1.95;;;5.00;99.90;;;;;;5074396;28;20403;-88
2021/03/14 04:35:22;;;;;;;10.75;1.73;;;4.90;99.90;;;;;;5056642;28;20024;-87
2021/03/14 04:37:48;;;;;;;15.45;2.88;;;4.90;99.90;;;;;;5074390;28;20150;-87
2021/03/14 04:40:15;;;;;;;10.68;2.15;;;4.90;99.90;;;;;;5074176;28;20024;-87
2021/03/14 04:42:44;;;;;;;15.50;2.53;;;4.90;99.90;;;;;;5074466;28;20028;-88
2021/03/14 04:45:10;;;;;;;14.20;1.87;;;4.90;99.90;;;;;;5056394;28;20422;-87
2021/03/14 04:47:38;;;;;;;11.20;2.15;;;4.90;99.90;;;;;;5074235;28;20487;-87
2021/03/14 04:50:05;;;;;;;10.30;1.60;;;4.90;99.90;;;;;;5056323;28;20021;-87
2021/03/14 04:52:31;;;;;;;18.55;2.55;;;4.90;99.90;;;;;;5056462;28;20024;-87
2021/03/14 04:54:58;;;;;;;17.23;2.22;;;4.80;99.90;;;;;;5056121;28;20491;-87
2021/03/14 04:57:24;;;;;;;14.55;2.42;;;4.80;99.90;;;;;;5055721;28;20426;-86
2021/03/14 04:59:51;;;;;;;9.40;2.33;;;4.80;99.90;;;;;;5055921;28;20024;-87
2021/03/14 05:02:17;;;;;;;9.80;2.22;;;4.80;99.90;;;;;;5045472;28;20489;-88
2021/03/14 05:04:47;;;;;;;9.88;1.98;;;4.80;99.90;;;;;;5035858;28;20029;-87
2021/03/14 05:07:13;;;;;;;11.30;2.47;;;4.90;99.90;;;;;;5043079;28;20561;-88
2021/03/14 05:09:41;;;;;;;13.00;2.03;;;4.90;99.90;;;;;;5056099;28;20032;-87
2021/03/14 05:12:08;;;;;;;13.75;2.25;;;5.00;99.90;;;;;;5055920;28;20101;-87
2021/03/14 05:14:36;;;;;;;12.35;2.13;;;5.00;99.90;;;;;;5075378;28;20400;-86
2021/03/14 05:17:03;;;;;;;10.88;2.08;;;5.00;99.90;;;;;;5075781;28;20028;-85
2021/03/14 05:19:31;;;;;;;15.32;2.58;;;4.80;99.90;;;;;;5076434;28;20031;-85
2021/03/14 05:21:58;;;;;;;12.77;3.13;;;4.70;99.90;;;;;;5093757;28;20032;-84
2021/03/14 05:24:24;;;;;;;18.17;3.42;;;4.60;99.90;;;;;;5075498;28;20495;-84
2021/03/14 05:26:50;;;;;;;12.57;2.70;;;4.40;99.90;;;;;;5095057;28;20027;-83
2021/03/14 05:29:16;;;;;;;15.85;3.05;;;4.40;99.90;;;;;;5075133;28;20470;-82
2021/03/14 05:31:42;;;;;;;22.55;3.15;;;4.30;99.90;;;;;;5074945;28;20024;-81
2021/03/14 05:34:13;;;;;;;13.27;2.63;;;4.30;99.90;;;;;;5075381;28;20479;-81
2021/03/14 05:36:39;;;;;;;14.07;3.05;;;4.30;99.90;;;;;;5093164;28;20066;-81
2021/03/14 05:39:05;;;;;;;14.38;3.38;;;4.30;99.90;;;;;;5075051;28;20166;-82
2021/03/14 05:41:33;;;;;;;19.05;4.63;;;4.20;99.90;;;;;;5093119;28;20027;-82
2021/03/14 05:44:00;;;;;;;14.57;4.22;;;4.20;99.90;;;;;;5075077;28;20034;-82
2021/03/14 05:46:26;;;;;;;22.63;4.93;;;4.20;99.90;;;;;;5074883;28;20107;-81
2021/03/14 05:48:52;;;;;;;14.70;5.20;;;4.20;99.90;;;;;;5074829;28;20047;-82
2021/03/14 05:51:22;;;;;;;21.20;4.68;;;4.20;99.90;;;;;;5074719;28;20467;-82
2021/03/14 05:53:49;;;;;;;;;;;4.20;99.90;;;;;;5075414;28;20087;-82
2021/03/14 05:56:14;;;;;;;18.73;5.03;;;4.20;99.90;;;;;;5074821;28;19911;-82
2021/03/14 05:58:41;;;;;;;16.88;4.65;;;4.10;99.90;;;;;;5092953;28;20032;-83
2021/03/14 06:01:10;;;;;;;22.73;5.97;;;4.20;99.90;;;;;;5074528;28;20161;-82
2021/03/14 06:03:36;;;;;;;15.20;5.57;;;4.20;99.90;;;;;;5092299;28;20073;-83
2021/03/14 06:06:07;;;;;;;13.10;5.72;;;4.20;99.90;;;;;;5073480;28;20032;-83
2021/03/14 06:08:33;;;;;;;18.10;5.75;;;4.20;99.90;;;;;;5094962;28;20044;-83
2021/03/14 06:11:01;;;;;;;16.10;5.28;;;4.20;99.90;;;;;;5096727;28;20020;-84
2021/03/14 06:13:27;;;;;;;15.05;5.75;;;4.20;99.90;;;;;;5078819;28;20036;-84
2021/03/14 06:15:53;;;;;;;12.52;5.45;;;4.20;99.90;;;;;;5089022;28;20361;-85
2021/03/14 06:18:19;;;;;;;14.43;6.30;;;4.30;99.90;;;;;;5078609;28;20407;-85
2021/03/14 06:20:45;;;;;;;14.93;5.90;;;4.20;99.90;;;;;;5079071;28;20047;-85
2021/03/14 06:23:12;;;;;;;13.98;5.78;;;4.20;99.90;;;;;;5097034;28;20051;-85
2021/03/14 06:25:40;;;;;;;9.70;5.28;;;4.30;99.90;;;;;;5079314;28;20540;-85
2021/03/14 06:28:05;;;;;;;12.45;6.38;;;4.20;99.90;;;;;;5078408;28;20024;-86
2021/03/14 06:30:32;;;;;;;13.52;6.70;;;4.20;99.90;;;;;;5078619;28;20020;-86
2021/03/14 06:33:16;;;;;;;12.85;6.13;;;4.20;99.90;;;;;;5096557;28;20547;-85
2021/03/14 06:35:54;;;;;;;19.67;9.02;;;4.20;99.90;;;;;;5078279;28;20024;-86
2021/03/14 06:38:33;;;;;;;15.45;8.50;;;4.20;99.90;;;;;;5096614;28;20490;-86
2021/03/14 06:41:02;;;;;;;18.33;9.18;;;4.20;99.90;;;;;;5078078;28;20031;-87
2021/03/14 06:43:42;;;;;;;19.52;9.75;;;4.20;99.90;;;;;;5078239;28;20028;-87
2021/03/14 06:46:25;;;;;;;21.05;9.70;;;4.20;99.90;;;;;;5096520;28;20035;-86
2021/03/14 06:49:11;;;;;;;19.50;9.20;;;4.30;99.90;;;;;;5078327;28;20028;-85
2021/03/14 06:51:38;;;;;;;21.13;10.38;;;4.30;99.90;;;;;;5077994;28;20028;-86
2021/03/14 06:54:26;;;;;;;22.98;9.45;;;4.30;99.90;;;;;;5078156;28;20159;-86
2021/03/14 06:57:12;;;;;;;13.80;9.15;;;4.40;99.90;;;;;;5078014;28;20081;-85
2021/03/14 06:59:42;;;;;;;14.80;9.20;;;4.40;99.90;;;;;;5096150;28;20028;-86
2021/03/14 07:02:09;;;;;;;19.38;9.80;;;4.40;99.90;;;;;;5073759;28;20479;-86
2021/03/14 07:04:36;;;;;;;16.88;9.90;;;4.40;99.90;;;;;;5085326;28;20055;-86
2021/03/14 07:07:03;;;;;;;16.42;9.95;;;4.40;99.90;;;;;;5069649;28;20040;-86
2021/03/14 07:09:29;;;;;;;17.70;10.50;;;4.40;99.90;;;;;;5083578;28;20162;-86
2021/03/14 07:11:55;;;;;;;19.35;9.75;;;4.40;99.90;;;;;;5073967;28;20484;-86
2021/03/14 07:14:20;;;;;;;16.30;10.07;;;4.50;99.90;;;;;;5075689;28;20033;-86
2021/03/14 07:16:53;;;;;;;18.38;10.52;;;4.50;99.90;;;;;;5076943;28;20087;-85
2021/03/14 07:19:29;;;;;;;20.73;10.50;;;4.50;99.90;;;;;;5073496;28;20476;-85
2021/03/14 07:22:09;;;;;;;18.92;9.82;;;4.50;99.90;;;;;;5074536;28;20024;-86
2021/03/14 07:24:42;;;;;;;17.08;10.38;;;4.50;99.90;;;;;;5075701;28;20047;-85
2021/03/14 07:27:10;;;;;;;21.58;11.25;;;4.50;99.90;;;;;;5074169;28;20515;-86
2021/03/14 07:29:36;;;;;;;20.60;10.65;;;4.60;99.90;;;;;;5080970;28;20491;-86
2021/03/14 07:32:03;;;;;;;19.33;10.27;;;4.60;99.90;;;;;;5085590;28;20028;-86
2021/03/14 07:34:28;;;;;;;20.13;10.95;;;4.70;99.90;;;;;;5084096;28;20031;-86
2021/03/14 07:36:54;;;;;;;15.25;10.75;;;4.70;99.90;;;;;;5076616;28;20017;-86
2021/03/14 07:39:20;;;;;;;13.65;9.50;;;4.80;99.90;;;;;;5091172;28;20040;-86
2021/03/14 07:41:47;;;;;;;17.75;10.25;;;4.80;99.90;;;;;;5094016;28;20388;-85
2021/03/14 07:44:13;;;;;;;18.10;9.70;;;4.80;99.90;;;;;;5086253;28;20102;-85
2021/03/14 07:46:43;;;;;;;17.55;9.80;;;4.80;99.90;;;;;;5099589;28;20066;-86
2021/03/14 07:49:12;;;;;;;18.45;9.50;;;4.90;99.90;;;;;;5080491;28;20031;-86
2021/03/14 07:51:38;;;;;;;17.75;9.18;;;4.90;99.90;;;;;;5082282;28;20031;-86
2021/03/14 07:54:07;;;;;;;17.50;9.00;;;4.90;99.90;;;;;;5084686;28;20028;-85
2021/03/14 07:56:38;;;;;;;14.18;8.07;;;5.00;99.90;;;;;;5100266;28;20500;-85
2021/03/14 07:59:05;;;;;;;15.52;8.50;;;5.00;99.90;;;;;;5081707;28;20063;-85
2021/03/14 08:01:32;;;;;;;14.65;9.32;;;5.10;99.90;;;;;;5083351;28;20480;-86
2021/03/14 08:03:58;;;;;;;15.30;8.40;;;5.10;99.90;;;;;;5083678;28;20550;-85
2021/03/14 08:06:43;;;;;;;11.13;7.85;;;5.20;99.90;;;;;;5096290;28;20082;-85
2021/03/14 08:09:09;;;;;;;12.73;7.65;;;5.20;99.90;;;;;;5091480;28;20116;-85
2021/03/14 08:11:34;;;;;;;16.08;8.32;;;5.20;99.90;;;;;;5075067;28;20048;-85
2021/03/14 08:14:00;;;;;;;16.42;8.88;;;5.30;99.90;;;;;;5075963;28;20061;-86
2021/03/14 08:16:26;;;;;;;15.70;8.30;;;5.20;99.90;;;;;;5081528;28;20028;-85
2021/03/14 08:18:53;;;;;;;17.98;9.18;;;5.30;99.90;;;;;;5094385;28;20024;-84
2021/03/14 08:21:22;;;;;;;13.48;7.93;;;5.30;99.90;;;;;;5076182;28;20031;-84
2021/03/14 08:23:47;;;;;;;16.35;8.05;;;5.40;99.90;;;;;;5074623;28;20024;-84
2021/03/14 08:26:17;;;;;;;14.95;9.38;;;5.40;99.90;;;;;;5094459;28;20020;-85
2021/03/14 08:29:12;;;;;;;12.57;8.63;;;5.50;99.90;;;;;;5072178;28;20017;-84
2021/03/14 08:31:42;;;;;;;14.30;8.00;;;5.70;99.90;;;;;;5071855;28;20025;-84
2021/03/14 08:34:10;;;;;;;14.63;7.80;;;5.80;99.90;;;;;;5054015;28;20032;-84
2021/03/14 08:36:40;;;;;;;16.70;8.50;;;5.90;99.90;;;;;;5073124;28;20086;-85
2021/03/14 08:39:27;;;;;;;17.25;7.80;;;5.90;99.90;;;;;;5057065;28;20361;-85
2021/03/14 08:42:01;;;;;;;14.07;8.00;;;5.90;99.90;;;;;;5055643;28;20529;-85
2021/03/14 08:44:40;;;;;;;16.08;7.82;;;5.90;99.90;;;;;;5056231;28;20025;-84
2021/03/14 08:47:24;;;;;;;14.20;7.30;;;5.90;99.90;;;;;;5056279;28;20017;-84
2021/03/14 08:49:55;;;;;;;12.98;7.60;;;6.00;99.90;;;;;;5057011;28;20074;-83
2021/03/14 08:52:21;;;;;;;12.75;7.10;;;6.10;99.90;;;;;;5058595;28;20366;-83
2021/03/14 08:54:50;;;;;;;16.38;7.05;;;6.10;99.90;;;;;;5041000;28;20077;-83
2021/03/14 08:57:17;;;;;;;10.98;7.10;;;6.10;99.90;;;;;;5066033;28;20028;-83
2021/03/14 08:59:57;;;;;;;14.40;7.78;;;6.20;99.90;;;;;;5044664;28;20036;-83
2021/03/14 09:02:30;;;;;;;17.23;7.25;;;6.10;99.90;;;;;;5055012;28;20020;-84
2021/03/14 09:05:15;;;;;;;13.77;7.32;;;6.10;99.90;;;;;;5052794;28;20043;-84
2021/03/14 09:07:41;;;;;;;17.40;7.65;;;6.20;99.90;;;;;;5064612;28;20060;-84
2021/03/14 09:10:12;;;;;;;14.93;7.32;;;6.20;99.90;;;;;;5074037;28;20099;-84
2021/03/14 09:12:38;;;;;;;17.27;8.75;;;6.20;99.90;;;;;;5076045;28;20476;-84
2021/03/14 09:15:09;;;;;;;13.18;7.38;;;6.20;99.90;;;;;;5062380;28;20110;-84
2021/03/14 09:17:39;;;;;;;17.77;8.10;;;6.30;99.90;;;;;;5083072;28;20033;-83
2021/03/14 09:20:06;;;;;;;17.10;8.20;;;6.30;99.90;;;;;;5086367;28;20035;-85
2021/03/14 09:22:34;;;;;;;14.45;7.80;;;6.30;99.90;;;;;;5055142;28;20020;-83
2021/03/14 09:25:01;;;;;;;19.23;8.48;;;6.50;99.90;;;;;;5054457;28;20020;-83
2021/03/14 09:27:32;;;;;;;21.33;8.45;;;6.60;99.90;;;;;;5056286;28;20028;-84
2021/03/14 09:30:09;;;;;;;17.55;7.63;;;6.60;99.90;;;;;;5066828;28;20036;-86
2021/03/14 09:32:37;;;;;;;20.42;7.97;;;6.80;99.90;;;;;;5090436;28;20785;-82
2021/03/14 09:35:18;;;;;;;13.90;6.47;;;6.90;99.90;;;;;;5077363;28;20052;-83
2021/03/14 09:38:01;;;;;;;18.48;6.93;;;7.00;99.90;;;;;;5075322;28;20555;-82
2021/03/14 09:40:27;;;;;;;12.15;6.10;;;7.00;99.90;;;;;;5059769;28;20033;-84
2021/03/14 09:43:14;;;;;;;13.88;5.30;;;7.10;99.90;;;;;;5079610;28;20468;-82
2021/03/14 09:45:44;;;;;;;15.02;5.35;;;7.20;99.90;;;;;;5097150;28;20059;-89
2021/03/14 09:48:19;;;;;;;11.00;6.20;;;7.20;99.90;;;;;;5092938;28;20012;-85
2021/03/14 09:50:55;;;;;;;12.73;5.03;;;7.20;99.90;;;;;;5067753;28;20055;-88
2021/03/14 09:53:23;;;;;;;11.95;4.55;;;7.20;99.90;;;;;;5074257;28;20024;-87
2021/03/14 09:55:54;;;;;;;8.02;4.15;;;7.30;99.90;;;;;;5073071;28;20020;-86
2021/03/14 09:58:22;;;;;;;7.93;2.60;;;7.30;99.90;;;;;;5067375;28;20032;-88
2021/03/14 10:00:50;;;;;;;11.00;2.28;;;7.30;99.90;;;;;;5092189;28;20024;-86
2021/03/14 10:03:19;;;;;;;7.97;3.08;;;7.20;99.90;;;;;;5070235;28;20029;-89
2021/03/14 10:05:53;;;;;;;7.03;2.77;;;7.10;99.90;;;;;;5060336;28;20023;-87
2021/03/14 10:08:22;;;;;;;9.38;3.53;;;7.20;99.90;;;;;;5076993;28;20499;-87
2021/03/14 10:10:50;;;;;;;8.85;4.78;;;7.40;99.90;;;;;;5078854;28;20032;-90
2021/03/14 10:13:20;;;;;;;8.65;3.03;;;7.50;99.90;;;;;;5063837;28;20043;-87
2021/03/14 10:15:49;;;;;;;10.55;3.25;;;7.50;99.90;;;;;;5074562;28;20104;-86
2021/03/14 10:18:17;;;;;;;13.27;4.13;;;7.60;99.90;;;;;;5054487;28;20033;-87
2021/03/14 10:20:43;;;;;;;6.80;2.17;;;7.60;99.90;;;;;;5059580;28;20086;-85
2021/03/14 10:23:09;;;;;;;5.25;2.45;;;7.60;99.90;;;;;;5094248;28;20434;-86
2021/03/14 10:25:37;;;;;;;6.25;2.40;;;8.20;99.90;;;;;;5067946;28;20047;-87
2021/03/14 10:28:11;;;;;;;7.55;1.75;;;9.20;99.90;;;;;;5061632;28;20016;-88
2021/03/14 10:30:41;;;;;;;6.20;2.67;;;9.10;99.90;;;;;;5079898;28;20020;-86
2021/03/14 10:33:07;;;;;;;6.75;2.20;;;9.20;99.90;;;;;;5096086;28;20032;-86
2021/03/14 10:35:33;;;;;;;6.07;2.15;;;10.00;99.90;;;;;;5069695;28;20440;-86
2021/03/14 10:38:21;;;;;;;7.78;1.77;;;10.00;98.70;;;;;;5078884;28;20063;-88
2021/03/14 10:40:48;;;;;;;5.10;1.48;;;11.20;96.80;;;;;;5072143;28;20048;-89
2021/03/14 10:43:32;;;;;;;3.00;1.23;;;10.80;95.70;;;;;;5076968;28;20519;-87
2021/03/14 10:45:57;;;;;;;4.47;1.40;;;10.10;95.50;;;;;;5069930;28;20020;-87
2021/03/14 10:48:27;;;;;;;6.75;1.73;;;9.50;97.40;;;;;;5071914;28;20115;-88
2021/03/14 10:51:04;;;;;;;6.18;1.42;;;9.20;97.20;;;;;;5070965;28;20484;-87
2021/03/14 10:53:29;;;;;;;7.00;1.77;;;9.90;98.60;;;;;;5064358;28;20035;-86
2021/03/14 10:56:08;;;;;;;8.75;2.20;;;9.90;96.90;;;;;;5073755;28;20077;-88
2021/03/14 10:58:41;;;;;;;12.45;2.20;;;9.40;97.60;;;;;;5079306;28;20395;-87
2021/03/14 11:01:15;;;;;;;7.13;2.17;;;8.90;98.90;;;;;;5075557;28;20013;-88
2021/03/14 11:03:42;;;;;;;5.47;1.50;;;8.20;99.90;;;;;;5070432;28;20388;-86
2021/03/14 11:06:10;;;;;;;5.72;1.15;;;7.50;99.90;;;;;;5073400;28;20012;-88
2021/03/14 11:08:56;;;;;;;4.40;1.27;;;7.10;99.90;;;;;;5087441;28;20040;-86
2021/03/14 11:11:35;;;;;;;3.17;0.57;;;6.80;99.90;;;;;;5083552;28;20009;-86
2021/03/14 11:14:00;;;;;;;1.92;0.50;;;6.70;99.90;;;;;;5097316;28;20012;-88
2021/03/14 11:16:26;;;;;;;2.70;0.40;;;6.60;99.90;;;;;;5090763;28;20120;-86
2021/03/14 11:19:01;;;;;;;2.50;0.50;;;6.60;99.90;;;;;;5118896;28;20050;-86
2021/03/14 11:21:27;;;;;;;2.00;0.50;;;6.60;99.90;;;;;;5067462;28;20536;-88
2021/03/14 11:23:52;;;;;;;3.25;0.70;;;6.80;99.90;;;;;;5071458;28;20036;-88
2021/03/14 11:26:18;;;;;;;3.30;0.98;;;6.90;99.90;;;;;;5061921;28;20028;-87
2021/03/14 11:28:47;;;;;;;4.65;2.00;;;6.90;99.90;;;;;;5093089;28;20105;-86
2021/03/14 11:31:13;;;;;;;5.07;1.20;;;7.00;99.90;;;;;;5070197;28;20021;-85
2021/03/14 11:33:39;;;;;;;4.70;1.30;;;7.00;99.90;;;;;;5054208;28;20024;-88
2021/03/14 11:36:04;;;;;;;7.88;1.98;;;7.00;99.90;;;;;;5094562;28;20017;-84
2021/03/14 11:38:30;;;;;;;6.05;2.08;;;7.00;99.90;;;;;;5058791;28;20025;-87
2021/03/14 11:40:56;;;;;;;6.65;2.20;;;7.20;99.90;;;;;;5061842;28;20111;-86
2021/03/14 11:43:23;;;;;;;6.85;2.20;;;7.40;99.90;;;;;;5055601;28;20071;-86
2021/03/14 11:45:51;;;;;;;5.95;2.50;;;7.50;99.90;;;;;;5065965;28;20074;-85
2021/03/14 11:48:17;;;;;;;7.88;2.80;;;7.70;99.90;;;;;;5083257;28;20405;-86
2021/03/14 11:50:43;;;;;;;8.73;2.78;;;7.80;99.90;;;;;;5057609;28;20017;-85
2021/03/14 11:53:09;;;;;;;10.07;3.20;;;7.70;99.90;;;;;;5055242;28;20031;-86
2021/03/14 11:55:35;;;;;;;6.60;3.10;;;7.60;99.90;;;;;;5062982;28;20033;-83
2021/03/14 11:58:00;;;;;;;15.05;3.35;;;7.60;99.90;;;;;;5057646;28;20488;-86
2021/03/14 12:00:26;;;;;;;11.18;2.53;;;7.50;99.90;;;;;;5060898;28;20399;-85
2021/03/14 12:02:52;;;;;;;13.90;3.55;;;7.50;99.90;;;;;;5058874;28;20052;-85
2021/03/14 12:05:19;;;;;;;7.88;2.00;;;7.50;99.90;;;;;;5059948;28;20025;-86
2021/03/14 12:07:45;;;;;;;7.35;2.30;;;7.60;99.90;;;;;;5056963;28;20435;-85
2021/03/14 12:10:12;;;;;;;10.18;2.78;;;7.70;99.90;;;;;;5052813;28;20475;-87
2021/03/14 12:12:38;;;;;;;11.43;3.10;;;7.80;99.90;;;;;;5044128;28;20092;-85
2021/03/14 12:15:04;;;;;;;8.15;2.40;;;7.90;99.90;;;;;;5055565;28;20559;-88
2021/03/14 12:17:30;;;;;;;10.82;2.47;;;7.90;99.90;;;;;;5073466;28;20487;-87
2021/03/14 12:19:55;;;;;;;10.73;2.22;;;7.90;99.90;;;;;;5073375;28;20074;-87
2021/03/14 12:22:21;;;;;;;8.70;2.17;;;7.90;99.90;;;;;;5067210;28;20411;-87
2021/03/14 12:24:46;;;;;;;9.20;2.15;;;7.90;99.90;;;;;;5072338;28;20020;-85
2021/03/14 12:27:12;;;;;;;10.55;2.08;;;7.90;99.90;;;;;;5061785;28;20066;-85
2021/03/14 12:29:38;;;;;;;6.90;1.70;;;7.90;99.90;;;;;;5057365;28;20099;-86
2021/03/14 12:32:05;;;;;;;7.85;1.88;;;8.10;99.90;;;;;;5056983;28;20025;-85
2021/03/14 12:34:31;;;;;;;9.93;1.83;;;8.60;99.90;;;;;;5046680;28;20389;-87
2021/03/14 12:36:56;;;;;;;13.68;2.47;;;8.80;99.90;;;;;;5057639;28;20021;-87
2021/03/14 12:39:22;;;;;;;9.57;1.70;;;8.60;99.90;;;;;;5066827;28;20116;-87
2021/03/14 12:41:48;;;;;;;9.90;1.90;;;8.40;99.90;;;;;;5057238;28;20021;-86
2021/03/14 12:44:13;;;;;;;11.65;3.03;;;8.30;99.90;;;;;;5049660;28;20396;-86
2021/03/14 12:46:39;;;;;;;7.30;1.70;;;8.20;99.90;;;;;;5060699;28;20029;-85
2021/03/14 12:49:04;;;;;;;15.05;1.85;;;8.00;99.90;;;;;;5045830;28;20475;-87
2021/03/14 12:51:30;;;;;;;9.73;1.80;;;8.30;99.90;;;;;;5045518;28;20381;-85
2021/03/14 12:53:56;;;;;;;7.75;1.40;;;8.80;99.90;;;;;;5057880;28;20020;-86
2021/03/14 12:56:21;;;;;;;7.47;1.52;;;9.60;99.50;;;;;;5062722;28;20571;-85